sensor_id;sensor_type;location;lat;lon;timestamp;P1;durP1;ratioP1;P2;durP2;ratioP2
30892;SDS011;17595;50.884;4.346;2022-12-05T00:01:51;64.00;;;30.75;;
30892;SDS011;17595;50.884;4.346;2022-12-05T00:04:17;60.97;;;30.17;;
30892;SDS011;17595;50.884;4.346;2022-12-05T00:06:43;58.78;;;30.02;;
30892;SDS011;17595;50.884;4.346;2022-12-05T00:09:10;56.28;;;28.75;;
30892;SDS011;17595;50.884;4.346;2022-12-05T00:11:38;62.13;;;29.95;;
30892;SDS011;17595;50.884;4.346;2022-12-05T00:14:06;62.73;;;30.53;;
30892;SDS011;17595;50.884;4.346;2022-12-05T00:16:32;57.70;;;29.52;;
30892;SDS011;17595;50.884;4.346;2022-12-05T00:19:01;60.72;;;30.67;;
30892;SDS011;17595;50.884;4.346;2022-12-05T00:21:29;61.47;;;29.65;;
30892;SDS011;17595;50.884;4.346;2022-12-05T00:23:56;68.32;;;30.08;;
30892;SDS011;17595;50.884;4.346;2022-12-05T00:26:23;66.05;;;30.58;;
30892;SDS011;17595;50.884;4.346;2022-12-05T00:28:50;60.58;;;30.40;;
30892;SDS011;17595;50.884;4.346;2022-12-05T00:31:19;66.45;;;29.55;;
30892;SDS011;17595;50.884;4.346;2022-12-05T00:33:46;62.72;;;30.52;;
30892;SDS011;17595;50.884;4.346;2022-12-05T00:36:14;63.40;;;28.98;;
30892;SDS011;17595;50.884;4.346;2022-12-05T00:38:50;60.75;;;27.50;;
30892;SDS011;17595;50.884;4.346;2022-12-05T00:41:18;55.40;;;28.15;;
30892;SDS011;17595;50.884;4.346;2022-12-05T00:43:47;57.42;;;28.80;;
30892;SDS011;17595;50.884;4.346;2022-12-05T00:46:14;60.03;;;28.15;;
30892;SDS011;17595;50.884;4.346;2022-12-05T00:48:41;63.47;;;29.50;;
30892;SDS011;17595;50.884;4.346;2022-12-05T00:51:12;62.42;;;29.33;;
30892;SDS011;17595;50.884;4.346;2022-12-05T00:53:39;63.35;;;28.85;;
30892;SDS011;17595;50.884;4.346;2022-12-05T00:56:11;60.28;;;28.15;;
30892;SDS011;17595;50.884;4.346;2022-12-05T00:58:38;62.88;;;30.13;;
30892;SDS011;17595;50.884;4.346;2022-12-05T01:01:09;58.22;;;27.70;;
30892;SDS011;17595;50.884;4.346;2022-12-05T01:03:38;61.85;;;28.42;;
30892;SDS011;17595;50.884;4.346;2022-12-05T01:06:04;64.18;;;27.98;;
30892;SDS011;17595;50.884;4.346;2022-12-05T01:08:31;57.88;;;27.48;;
30892;SDS011;17595;50.884;4.346;2022-12-05T01:10:57;65.60;;;28.92;;
30892;SDS011;17595;50.884;4.346;2022-12-05T01:13:23;62.80;;;28.52;;
30892;SDS011;17595;50.884;4.346;2022-12-05T01:15:50;56.55;;;26.38;;
30892;SDS011;17595;50.884;4.346;2022-12-05T01:18:16;55.53;;;26.73;;
30892;SDS011;17595;50.884;4.346;2022-12-05T01:20:42;64.25;;;28.58;;
30892;SDS011;17595;50.884;4.346;2022-12-05T01:23:09;55.75;;;26.67;;
30892;SDS011;17595;50.884;4.346;2022-12-05T01:25:37;63.63;;;28.10;;
30892;SDS011;17595;50.884;4.346;2022-12-05T01:28:04;58.10;;;28.27;;
30892;SDS011;17595;50.884;4.346;2022-12-05T01:30:30;56.35;;;28.15;;
30892;SDS011;17595;50.884;4.346;2022-12-05T01:32:56;55.65;;;27.60;;
30892;SDS011;17595;50.884;4.346;2022-12-05T01:35:23;58.67;;;27.35;;
30892;SDS011;17595;50.884;4.346;2022-12-05T01:37:49;59.60;;;29.30;;
30892;SDS011;17595;50.884;4.346;2022-12-05T01:40:15;61.70;;;29.98;;
30892;SDS011;17595;50.884;4.346;2022-12-05T01:42:41;59.45;;;28.40;;
30892;SDS011;17595;50.884;4.346;2022-12-05T01:45:17;56.75;;;27.80;;
30892;SDS011;17595;50.884;4.346;2022-12-05T01:47:49;60.15;;;27.58;;
30892;SDS011;17595;50.884;4.346;2022-12-05T01:50:15;60.55;;;27.60;;
30892;SDS011;17595;50.884;4.346;2022-12-05T01:52:41;58.75;;;27.92;;
30892;SDS011;17595;50.884;4.346;2022-12-05T01:55:09;55.78;;;26.88;;
30892;SDS011;17595;50.884;4.346;2022-12-05T01:57:37;56.88;;;29.30;;
30892;SDS011;17595;50.884;4.346;2022-12-05T02:00:08;63.33;;;27.52;;
30892;SDS011;17595;50.884;4.346;2022-12-05T02:02:36;60.28;;;28.80;;
30892;SDS011;17595;50.884;4.346;2022-12-05T02:07:33;55.97;;;27.90;;
30892;SDS011;17595;50.884;4.346;2022-12-05T02:10:02;60.10;;;28.88;;
30892;SDS011;17595;50.884;4.346;2022-12-05T02:12:28;63.17;;;29.27;;
30892;SDS011;17595;50.884;4.346;2022-12-05T02:18:17;65.65;;;28.77;;
30892;SDS011;17595;50.884;4.346;2022-12-05T02:26:29;64.57;;;29.73;;
30892;SDS011;17595;50.884;4.346;2022-12-05T02:31:35;60.33;;;28.40;;
30892;SDS011;17595;50.884;4.346;2022-12-05T02:37:00;63.45;;;30.58;;
30892;SDS011;17595;50.884;4.346;2022-12-05T02:42:02;59.30;;;29.40;;
30892;SDS011;17595;50.884;4.346;2022-12-05T02:46:57;61.08;;;29.27;;
30892;SDS011;17595;50.884;4.346;2022-12-05T02:49:25;64.32;;;28.42;;
30892;SDS011;17595;50.884;4.346;2022-12-05T02:51:56;57.72;;;28.42;;
30892;SDS011;17595;50.884;4.346;2022-12-05T02:54:24;60.05;;;28.65;;
30892;SDS011;17595;50.884;4.346;2022-12-05T02:56:54;58.97;;;28.45;;
30892;SDS011;17595;50.884;4.346;2022-12-05T02:59:22;67.95;;;29.10;;
30892;SDS011;17595;50.884;4.346;2022-12-05T03:01:47;62.08;;;29.88;;
30892;SDS011;17595;50.884;4.346;2022-12-05T03:04:14;62.38;;;27.67;;
30892;SDS011;17595;50.884;4.346;2022-12-05T03:06:42;57.25;;;27.30;;
30892;SDS011;17595;50.884;4.346;2022-12-05T03:11:46;67.47;;;30.60;;
30892;SDS011;17595;50.884;4.346;2022-12-05T03:14:18;70.43;;;28.70;;
30892;SDS011;17595;50.884;4.346;2022-12-05T03:16:48;66.32;;;29.85;;
30892;SDS011;17595;50.884;4.346;2022-12-05T03:19:20;64.63;;;29.88;;
30892;SDS011;17595;50.884;4.346;2022-12-05T03:21:59;64.57;;;28.77;;
30892;SDS011;17595;50.884;4.346;2022-12-05T03:24:27;63.03;;;28.33;;
30892;SDS011;17595;50.884;4.346;2022-12-05T03:27:03;59.80;;;29.90;;
30892;SDS011;17595;50.884;4.346;2022-12-05T03:29:35;61.63;;;28.25;;
30892;SDS011;17595;50.884;4.346;2022-12-05T03:32:21;57.25;;;28.23;;
30892;SDS011;17595;50.884;4.346;2022-12-05T03:40:07;64.78;;;30.00;;
30892;SDS011;17595;50.884;4.346;2022-12-05T03:42:39;66.03;;;29.05;;
30892;SDS011;17595;50.884;4.346;2022-12-05T03:45:14;61.15;;;28.15;;
30892;SDS011;17595;50.884;4.346;2022-12-05T03:47:48;60.20;;;27.40;;
30892;SDS011;17595;50.884;4.346;2022-12-05T03:50:30;54.25;;;26.83;;
30892;SDS011;17595;50.884;4.346;2022-12-05T03:53:05;57.88;;;26.75;;
30892;SDS011;17595;50.884;4.346;2022-12-05T03:55:36;55.65;;;26.63;;
30892;SDS011;17595;50.884;4.346;2022-12-05T03:58:11;57.72;;;26.95;;
30892;SDS011;17595;50.884;4.346;2022-12-05T04:00:42;50.65;;;26.20;;
30892;SDS011;17595;50.884;4.346;2022-12-05T04:03:14;53.60;;;26.63;;
30892;SDS011;17595;50.884;4.346;2022-12-05T04:08:39;58.38;;;27.45;;
30892;SDS011;17595;50.884;4.346;2022-12-05T04:11:13;56.08;;;26.63;;
30892;SDS011;17595;50.884;4.346;2022-12-05T04:13:47;50.80;;;26.20;;
30892;SDS011;17595;50.884;4.346;2022-12-05T04:16:37;55.00;;;25.73;;
30892;SDS011;17595;50.884;4.346;2022-12-05T04:19:24;49.38;;;23.63;;
30892;SDS011;17595;50.884;4.346;2022-12-05T04:22:19;51.83;;;25.08;;
30892;SDS011;17595;50.884;4.346;2022-12-05T04:24:45;51.42;;;24.80;;
30892;SDS011;17595;50.884;4.346;2022-12-05T04:32:35;47.53;;;24.67;;
30892;SDS011;17595;50.884;4.346;2022-12-05T04:35:19;46.58;;;23.58;;
30892;SDS011;17595;50.884;4.346;2022-12-05T04:37:50;41.03;;;22.67;;
30892;SDS011;17595;50.884;4.346;2022-12-05T04:40:27;45.50;;;23.67;;
30892;SDS011;17595;50.884;4.346;2022-12-05T04:42:56;48.15;;;25.15;;
30892;SDS011;17595;50.884;4.346;2022-12-05T04:45:23;45.38;;;24.38;;
30892;SDS011;17595;50.884;4.346;2022-12-05T04:47:52;50.28;;;25.88;;
30892;SDS011;17595;50.884;4.346;2022-12-05T04:50:23;49.40;;;24.45;;
30892;SDS011;17595;50.884;4.346;2022-12-05T04:52:53;51.45;;;24.80;;
30892;SDS011;17595;50.884;4.346;2022-12-05T04:55:22;45.83;;;24.85;;
30892;SDS011;17595;50.884;4.346;2022-12-05T05:00:45;54.08;;;25.38;;
30892;SDS011;17595;50.884;4.346;2022-12-05T05:03:23;49.75;;;25.50;;
30892;SDS011;17595;50.884;4.346;2022-12-05T05:05:55;52.85;;;25.05;;
30892;SDS011;17595;50.884;4.346;2022-12-05T05:08:22;47.88;;;25.00;;
30892;SDS011;17595;50.884;4.346;2022-12-05T05:13:30;49.13;;;25.13;;
30892;SDS011;17595;50.884;4.346;2022-12-05T05:15:56;51.63;;;26.05;;
30892;SDS011;17595;50.884;4.346;2022-12-05T05:18:21;51.40;;;26.90;;
30892;SDS011;17595;50.884;4.346;2022-12-05T05:20:47;54.50;;;26.98;;
30892;SDS011;17595;50.884;4.346;2022-12-05T05:23:13;53.25;;;27.05;;
30892;SDS011;17595;50.884;4.346;2022-12-05T05:25:38;49.83;;;26.95;;
30892;SDS011;17595;50.884;4.346;2022-12-05T05:28:04;55.45;;;27.10;;
30892;SDS011;17595;50.884;4.346;2022-12-05T05:30:29;46.65;;;25.00;;
30892;SDS011;17595;50.884;4.346;2022-12-05T05:32:55;54.38;;;27.00;;
30892;SDS011;17595;50.884;4.346;2022-12-05T05:35:23;52.47;;;26.20;;
30892;SDS011;17595;50.884;4.346;2022-12-05T05:37:49;51.13;;;26.73;;
30892;SDS011;17595;50.884;4.346;2022-12-05T05:40:15;53.88;;;27.13;;
30892;SDS011;17595;50.884;4.346;2022-12-05T05:42:44;53.03;;;26.52;;
30892;SDS011;17595;50.884;4.346;2022-12-05T05:45:12;57.50;;;27.15;;
30892;SDS011;17595;50.884;4.346;2022-12-05T05:47:39;52.83;;;27.80;;
30892;SDS011;17595;50.884;4.346;2022-12-05T05:50:05;54.10;;;26.38;;
30892;SDS011;17595;50.884;4.346;2022-12-05T05:52:32;61.65;;;27.33;;
30892;SDS011;17595;50.884;4.346;2022-12-05T05:54:59;51.25;;;27.00;;
30892;SDS011;17595;50.884;4.346;2022-12-05T05:57:25;57.08;;;27.17;;
30892;SDS011;17595;50.884;4.346;2022-12-05T05:59:51;57.53;;;27.48;;
30892;SDS011;17595;50.884;4.346;2022-12-05T06:02:17;52.67;;;26.45;;
30892;SDS011;17595;50.884;4.346;2022-12-05T06:04:42;55.72;;;26.70;;
30892;SDS011;17595;50.884;4.346;2022-12-05T06:07:08;54.58;;;25.48;;
30892;SDS011;17595;50.884;4.346;2022-12-05T06:09:34;52.38;;;27.38;;
30892;SDS011;17595;50.884;4.346;2022-12-05T06:11:59;52.97;;;27.23;;
30892;SDS011;17595;50.884;4.346;2022-12-05T06:14:25;56.83;;;28.17;;
30892;SDS011;17595;50.884;4.346;2022-12-05T06:16:50;56.58;;;28.67;;
30892;SDS011;17595;50.884;4.346;2022-12-05T06:19:16;54.85;;;28.15;;
30892;SDS011;17595;50.884;4.346;2022-12-05T06:21:41;58.78;;;28.10;;
30892;SDS011;17595;50.884;4.346;2022-12-05T06:24:07;56.55;;;26.70;;
30892;SDS011;17595;50.884;4.346;2022-12-05T06:26:33;52.78;;;26.45;;
30892;SDS011;17595;50.884;4.346;2022-12-05T06:28:58;54.72;;;26.50;;
30892;SDS011;17595;50.884;4.346;2022-12-05T06:31:24;53.45;;;26.98;;
30892;SDS011;17595;50.884;4.346;2022-12-05T06:33:58;49.92;;;26.42;;
30892;SDS011;17595;50.884;4.346;2022-12-05T06:36:27;54.85;;;27.50;;
30892;SDS011;17595;50.884;4.346;2022-12-05T06:38:57;56.20;;;26.98;;
30892;SDS011;17595;50.884;4.346;2022-12-05T06:43:52;52.90;;;26.40;;
30892;SDS011;17595;50.884;4.346;2022-12-05T06:46:22;53.13;;;26.90;;
30892;SDS011;17595;50.884;4.346;2022-12-05T06:48:51;56.67;;;26.88;;
30892;SDS011;17595;50.884;4.346;2022-12-05T06:51:17;55.30;;;27.70;;
30892;SDS011;17595;50.884;4.346;2022-12-05T06:53:43;55.45;;;27.75;;
30892;SDS011;17595;50.884;4.346;2022-12-05T06:56:11;55.83;;;27.67;;
30892;SDS011;17595;50.884;4.346;2022-12-05T06:58:43;53.50;;;27.52;;
30892;SDS011;17595;50.884;4.346;2022-12-05T07:01:14;55.25;;;27.95;;
30892;SDS011;17595;50.884;4.346;2022-12-05T07:04:00;57.72;;;27.90;;
30892;SDS011;17595;50.884;4.346;2022-12-05T07:06:26;54.30;;;27.63;;
30892;SDS011;17595;50.884;4.346;2022-12-05T07:08:53;48.60;;;26.73;;
30892;SDS011;17595;50.884;4.346;2022-12-05T07:11:19;50.08;;;26.13;;
30892;SDS011;17595;50.884;4.346;2022-12-05T07:13:45;54.40;;;26.80;;
30892;SDS011;17595;50.884;4.346;2022-12-05T07:16:11;50.88;;;27.33;;
30892;SDS011;17595;50.884;4.346;2022-12-05T07:18:36;49.05;;;27.45;;
30892;SDS011;17595;50.884;4.346;2022-12-05T07:21:03;54.25;;;26.75;;
30892;SDS011;17595;50.884;4.346;2022-12-05T07:23:31;61.33;;;28.85;;
30892;SDS011;17595;50.884;4.346;2022-12-05T07:25:57;59.15;;;29.10;;
30892;SDS011;17595;50.884;4.346;2022-12-05T07:28:23;54.90;;;27.50;;
30892;SDS011;17595;50.884;4.346;2022-12-05T07:30:57;59.53;;;27.77;;
30892;SDS011;17595;50.884;4.346;2022-12-05T07:33:24;59.38;;;27.48;;
30892;SDS011;17595;50.884;4.346;2022-12-05T07:35:50;61.83;;;28.00;;
30892;SDS011;17595;50.884;4.346;2022-12-05T07:38:15;57.28;;;28.80;;
30892;SDS011;17595;50.884;4.346;2022-12-05T07:40:41;57.35;;;27.13;;
30892;SDS011;17595;50.884;4.346;2022-12-05T07:43:06;61.00;;;28.58;;
30892;SDS011;17595;50.884;4.346;2022-12-05T07:45:33;54.00;;;28.25;;
30892;SDS011;17595;50.884;4.346;2022-12-05T07:47:59;56.53;;;27.52;;
30892;SDS011;17595;50.884;4.346;2022-12-05T07:50:25;58.55;;;28.83;;
30892;SDS011;17595;50.884;4.346;2022-12-05T07:52:51;63.03;;;30.60;;
30892;SDS011;17595;50.884;4.346;2022-12-05T07:55:16;56.15;;;27.35;;
30892;SDS011;17595;50.884;4.346;2022-12-05T07:57:42;51.80;;;25.98;;
30892;SDS011;17595;50.884;4.346;2022-12-05T08:00:08;54.33;;;27.50;;
30892;SDS011;17595;50.884;4.346;2022-12-05T08:02:34;57.83;;;27.58;;
30892;SDS011;17595;50.884;4.346;2022-12-05T08:04:59;60.15;;;28.15;;
30892;SDS011;17595;50.884;4.346;2022-12-05T08:07:25;55.50;;;26.80;;
30892;SDS011;17595;50.884;4.346;2022-12-05T08:09:51;52.15;;;25.73;;
30892;SDS011;17595;50.884;4.346;2022-12-05T08:12:16;51.90;;;26.25;;
30892;SDS011;17595;50.884;4.346;2022-12-05T08:14:42;55.10;;;26.15;;
30892;SDS011;17595;50.884;4.346;2022-12-05T08:17:07;47.80;;;24.95;;
30892;SDS011;17595;50.884;4.346;2022-12-05T08:19:33;51.25;;;24.95;;
30892;SDS011;17595;50.884;4.346;2022-12-05T08:21:58;51.03;;;24.45;;
30892;SDS011;17595;50.884;4.346;2022-12-05T08:24:24;49.67;;;24.52;;
30892;SDS011;17595;50.884;4.346;2022-12-05T08:26:50;46.17;;;24.55;;
30892;SDS011;17595;50.884;4.346;2022-12-05T08:29:18;46.85;;;23.73;;
30892;SDS011;17595;50.884;4.346;2022-12-05T08:31:46;46.53;;;23.63;;
30892;SDS011;17595;50.884;4.346;2022-12-05T08:34:14;44.50;;;23.40;;
30892;SDS011;17595;50.884;4.346;2022-12-05T08:36:41;42.40;;;22.45;;
30892;SDS011;17595;50.884;4.346;2022-12-05T08:39:09;40.42;;;21.40;;
30892;SDS011;17595;50.884;4.346;2022-12-05T08:41:38;39.08;;;22.70;;
30892;SDS011;17595;50.884;4.346;2022-12-05T08:44:04;41.63;;;21.75;;
30892;SDS011;17595;50.884;4.346;2022-12-05T08:46:32;41.22;;;22.45;;
30892;SDS011;17595;50.884;4.346;2022-12-05T08:49:00;39.80;;;22.65;;
30892;SDS011;17595;50.884;4.346;2022-12-05T08:51:26;36.38;;;21.23;;
30892;SDS011;17595;50.884;4.346;2022-12-05T08:53:51;38.45;;;21.25;;
30892;SDS011;17595;50.884;4.346;2022-12-05T08:56:17;35.40;;;20.77;;
30892;SDS011;17595;50.884;4.346;2022-12-05T08:58:43;35.03;;;19.80;;
30892;SDS011;17595;50.884;4.346;2022-12-05T09:01:13;37.60;;;20.67;;
30892;SDS011;17595;50.884;4.346;2022-12-05T09:03:40;34.38;;;20.65;;
30892;SDS011;17595;50.884;4.346;2022-12-05T09:06:08;37.05;;;21.05;;
30892;SDS011;17595;50.884;4.346;2022-12-05T09:08:54;36.72;;;20.30;;
30892;SDS011;17595;50.884;4.346;2022-12-05T09:11:23;34.38;;;19.05;;
30892;SDS011;17595;50.884;4.346;2022-12-05T09:13:51;32.55;;;19.20;;
30892;SDS011;17595;50.884;4.346;2022-12-05T09:16:19;33.72;;;19.20;;
30892;SDS011;17595;50.884;4.346;2022-12-05T09:18:47;30.17;;;18.60;;
30892;SDS011;17595;50.884;4.346;2022-12-05T09:21:14;32.08;;;18.95;;
30892;SDS011;17595;50.884;4.346;2022-12-05T09:23:45;34.45;;;19.52;;
30892;SDS011;17595;50.884;4.346;2022-12-05T09:26:11;29.23;;;18.60;;
30892;SDS011;17595;50.884;4.346;2022-12-05T09:28:40;30.70;;;17.67;;
30892;SDS011;17595;50.884;4.346;2022-12-05T09:31:08;33.47;;;18.30;;
30892;SDS011;17595;50.884;4.346;2022-12-05T09:36:24;27.77;;;17.90;;
30892;SDS011;17595;50.884;4.346;2022-12-05T09:38:49;31.65;;;19.08;;
30892;SDS011;17595;50.884;4.346;2022-12-05T09:41:36;30.55;;;17.65;;
30892;SDS011;17595;50.884;4.346;2022-12-05T09:55:35;22.88;;;15.32;;
30892;SDS011;17595;50.884;4.346;2022-12-05T09:58:15;28.50;;;17.75;;
30892;SDS011;17595;50.884;4.346;2022-12-05T10:00:50;27.35;;;17.25;;
30892;SDS011;17595;50.884;4.346;2022-12-05T10:03:28;27.05;;;17.02;;
30892;SDS011;17595;50.884;4.346;2022-12-05T10:06:05;27.80;;;17.58;;
30892;SDS011;17595;50.884;4.346;2022-12-05T10:12:17;30.42;;;18.30;;
30892;SDS011;17595;50.884;4.346;2022-12-05T10:17:47;31.02;;;17.58;;
30892;SDS011;17595;50.884;4.346;2022-12-05T10:20:23;29.77;;;17.25;;
30892;SDS011;17595;50.884;4.346;2022-12-05T10:25:23;25.63;;;17.95;;
30892;SDS011;17595;50.884;4.346;2022-12-05T10:27:52;24.33;;;15.77;;
30892;SDS011;17595;50.884;4.346;2022-12-05T10:30:22;24.98;;;16.52;;
30892;SDS011;17595;50.884;4.346;2022-12-05T10:32:50;27.63;;;15.98;;
30892;SDS011;17595;50.884;4.346;2022-12-05T10:35:21;26.02;;;16.23;;
30892;SDS011;17595;50.884;4.346;2022-12-05T10:37:54;25.98;;;16.40;;
30892;SDS011;17595;50.884;4.346;2022-12-05T10:40:24;24.15;;;16.27;;
30892;SDS011;17595;50.884;4.346;2022-12-05T10:42:55;32.83;;;17.45;;
30892;SDS011;17595;50.884;4.346;2022-12-05T10:45:21;24.83;;;16.05;;
30892;SDS011;17595;50.884;4.346;2022-12-05T10:47:48;27.60;;;17.13;;
30892;SDS011;17595;50.884;4.346;2022-12-05T10:50:19;30.33;;;17.23;;
30892;SDS011;17595;50.884;4.346;2022-12-05T10:52:49;25.35;;;16.38;;
30892;SDS011;17595;50.884;4.346;2022-12-05T10:55:17;23.92;;;15.98;;
30892;SDS011;17595;50.884;4.346;2022-12-05T10:57:45;25.17;;;15.32;;
30892;SDS011;17595;50.884;4.346;2022-12-05T11:00:31;30.10;;;16.98;;
30892;SDS011;17595;50.884;4.346;2022-12-05T11:02:57;30.13;;;16.95;;
30892;SDS011;17595;50.884;4.346;2022-12-05T11:05:28;25.48;;;16.58;;
30892;SDS011;17595;50.884;4.346;2022-12-05T11:07:55;21.25;;;14.93;;
30892;SDS011;17595;50.884;4.346;2022-12-05T11:10:26;21.67;;;15.60;;
30892;SDS011;17595;50.884;4.346;2022-12-05T11:12:58;26.27;;;14.77;;
30892;SDS011;17595;50.884;4.346;2022-12-05T11:15:28;23.98;;;15.52;;
30892;SDS011;17595;50.884;4.346;2022-12-05T11:17:56;23.02;;;14.32;;
30892;SDS011;17595;50.884;4.346;2022-12-05T11:20:41;22.27;;;14.80;;
30892;SDS011;17595;50.884;4.346;2022-12-05T11:23:21;23.30;;;15.02;;
30892;SDS011;17595;50.884;4.346;2022-12-05T11:25:48;25.27;;;15.32;;
30892;SDS011;17595;50.884;4.346;2022-12-05T11:31:45;25.55;;;15.25;;
30892;SDS011;17595;50.884;4.346;2022-12-05T11:33:40;26.50;;;15.70;;
30892;SDS011;17595;50.884;4.346;2022-12-05T11:36:40;24.02;;;15.30;;
30892;SDS011;17595;50.884;4.346;2022-12-05T11:41:37;21.95;;;15.30;;
30892;SDS011;17595;50.884;4.346;2022-12-05T11:53:02;18.33;;;13.25;;
30892;SDS011;17595;50.884;4.346;2022-12-05T12:11:57;23.30;;;15.32;;
30892;SDS011;17595;50.884;4.346;2022-12-05T12:14:55;24.50;;;15.32;;
30892;SDS011;17595;50.884;4.346;2022-12-05T12:17:37;23.00;;;15.60;;
30892;SDS011;17595;50.884;4.346;2022-12-05T12:35:59;22.92;;;15.02;;
30892;SDS011;17595;50.884;4.346;2022-12-05T12:52:13;20.77;;;14.32;;
30892;SDS011;17595;50.884;4.346;2022-12-05T12:57:37;20.75;;;14.20;;
30892;SDS011;17595;50.884;4.346;2022-12-05T13:00:25;20.90;;;14.18;;
30892;SDS011;17595;50.884;4.346;2022-12-05T13:03:18;21.75;;;15.05;;
30892;SDS011;17595;50.884;4.346;2022-12-05T13:05:58;20.90;;;15.43;;
30892;SDS011;17595;50.884;4.346;2022-12-05T13:08:37;23.30;;;15.40;;
30892;SDS011;17595;50.884;4.346;2022-12-05T13:11:09;21.77;;;14.35;;
30892;SDS011;17595;50.884;4.346;2022-12-05T13:13:51;19.85;;;15.05;;
30892;SDS011;17595;50.884;4.346;2022-12-05T13:16:23;19.33;;;14.95;;
30892;SDS011;17595;50.884;4.346;2022-12-05T13:18:52;24.42;;;14.88;;
30892;SDS011;17595;50.884;4.346;2022-12-05T13:21:19;20.60;;;15.23;;
30892;SDS011;17595;50.884;4.346;2022-12-05T13:23:46;22.38;;;15.45;;
30892;SDS011;17595;50.884;4.346;2022-12-05T13:26:14;23.48;;;15.52;;
30892;SDS011;17595;50.884;4.346;2022-12-05T13:31:12;22.40;;;15.95;;
30892;SDS011;17595;50.884;4.346;2022-12-05T13:33:48;24.40;;;15.52;;
30892;SDS011;17595;50.884;4.346;2022-12-05T13:36:21;21.50;;;15.93;;
30892;SDS011;17595;50.884;4.346;2022-12-05T13:39:12;23.52;;;16.60;;
30892;SDS011;17595;50.884;4.346;2022-12-05T13:42:03;26.55;;;17.55;;
30892;SDS011;17595;50.884;4.346;2022-12-05T13:44:45;23.92;;;16.40;;
30892;SDS011;17595;50.884;4.346;2022-12-05T13:47:28;26.65;;;17.38;;
30892;SDS011;17595;50.884;4.346;2022-12-05T13:50:15;23.65;;;16.77;;
30892;SDS011;17595;50.884;4.346;2022-12-05T13:55:33;21.80;;;15.37;;
30892;SDS011;17595;50.884;4.346;2022-12-05T13:57:57;25.77;;;16.08;;
30892;SDS011;17595;50.884;4.346;2022-12-05T14:02:56;26.90;;;17.48;;
30892;SDS011;17595;50.884;4.346;2022-12-05T14:07:53;25.52;;;17.20;;
30892;SDS011;17595;50.884;4.346;2022-12-05T14:10:21;29.00;;;18.20;;
30892;SDS011;17595;50.884;4.346;2022-12-05T14:15:44;28.48;;;18.67;;
30892;SDS011;17595;50.884;4.346;2022-12-05T14:23:40;30.42;;;17.98;;
30892;SDS011;17595;50.884;4.346;2022-12-05T14:26:14;29.92;;;18.83;;
30892;SDS011;17595;50.884;4.346;2022-12-05T14:29:02;27.42;;;18.20;;
30892;SDS011;17595;50.884;4.346;2022-12-05T14:42:51;29.23;;;20.00;;
30892;SDS011;17595;50.884;4.346;2022-12-05T14:44:51;29.83;;;19.92;;
30892;SDS011;17595;50.884;4.346;2022-12-05T14:47:20;31.02;;;20.42;;
30892;SDS011;17595;50.884;4.346;2022-12-05T14:49:54;29.55;;;20.25;;
30892;SDS011;17595;50.884;4.346;2022-12-05T14:52:28;33.03;;;21.52;;
30892;SDS011;17595;50.884;4.346;2022-12-05T14:55:03;31.48;;;20.08;;
30892;SDS011;17595;50.884;4.346;2022-12-05T14:57:35;34.38;;;20.48;;
30892;SDS011;17595;50.884;4.346;2022-12-05T15:00:16;31.10;;;20.75;;
30892;SDS011;17595;50.884;4.346;2022-12-05T15:02:46;33.33;;;20.58;;
30892;SDS011;17595;50.884;4.346;2022-12-05T15:05:22;32.28;;;20.98;;
30892;SDS011;17595;50.884;4.346;2022-12-05T15:07:53;32.33;;;21.15;;
30892;SDS011;17595;50.884;4.346;2022-12-05T15:10:30;34.60;;;22.33;;
30892;SDS011;17595;50.884;4.346;2022-12-05T15:13:09;36.67;;;23.05;;
30892;SDS011;17595;50.884;4.346;2022-12-05T15:21:37;43.83;;;26.20;;
30892;SDS011;17595;50.884;4.346;2022-12-05T15:24:13;41.55;;;26.15;;
30892;SDS011;17595;50.884;4.346;2022-12-05T15:26:44;42.40;;;25.92;;
30892;SDS011;17595;50.884;4.346;2022-12-05T15:34:17;46.65;;;27.13;;
30892;SDS011;17595;50.884;4.346;2022-12-05T15:42:43;46.38;;;27.70;;
30892;SDS011;17595;50.884;4.346;2022-12-05T15:45:20;50.53;;;27.42;;
30892;SDS011;17595;50.884;4.346;2022-12-05T15:55:37;54.97;;;30.98;;
30892;SDS011;17595;50.884;4.346;2022-12-05T16:00:44;53.33;;;29.33;;
30892;SDS011;17595;50.884;4.346;2022-12-05T16:03:17;58.90;;;31.75;;
30892;SDS011;17595;50.884;4.346;2022-12-05T16:05:51;51.97;;;31.73;;
30892;SDS011;17595;50.884;4.346;2022-12-05T16:08:20;53.85;;;30.35;;
30892;SDS011;17595;50.884;4.346;2022-12-05T16:10:48;54.95;;;32.47;;
30892;SDS011;17595;50.884;4.346;2022-12-05T16:13:14;48.33;;;29.52;;
30892;SDS011;17595;50.884;4.346;2022-12-05T16:15:46;50.47;;;30.50;;
30892;SDS011;17595;50.884;4.346;2022-12-05T16:18:22;49.05;;;29.58;;
30892;SDS011;17595;50.884;4.346;2022-12-05T16:20:53;49.33;;;29.98;;
30892;SDS011;17595;50.884;4.346;2022-12-05T16:23:24;48.05;;;29.52;;
30892;SDS011;17595;50.884;4.346;2022-12-05T16:28:58;47.53;;;28.35;;
30892;SDS011;17595;50.884;4.346;2022-12-05T16:31:25;46.58;;;29.27;;
30892;SDS011;17595;50.884;4.346;2022-12-05T16:34:05;53.47;;;30.05;;
30892;SDS011;17595;50.884;4.346;2022-12-05T16:36:32;59.58;;;37.08;;
30892;SDS011;17595;50.884;4.346;2022-12-05T16:39:06;51.85;;;32.67;;
30892;SDS011;17595;50.884;4.346;2022-12-05T16:41:38;51.38;;;32.38;;
30892;SDS011;17595;50.884;4.346;2022-12-05T16:44:05;47.85;;;29.90;;
30892;SDS011;17595;50.884;4.346;2022-12-05T16:46:50;50.60;;;31.17;;
30892;SDS011;17595;50.884;4.346;2022-12-05T16:52:07;50.90;;;30.88;;
30892;SDS011;17595;50.884;4.346;2022-12-05T16:57:04;46.92;;;28.27;;
30892;SDS011;17595;50.884;4.346;2022-12-05T16:59:33;49.15;;;29.33;;
30892;SDS011;17595;50.884;4.346;2022-12-05T17:02:01;46.30;;;28.80;;
30892;SDS011;17595;50.884;4.346;2022-12-05T17:04:28;50.15;;;31.10;;
30892;SDS011;17595;50.884;4.346;2022-12-05T17:06:53;62.03;;;38.58;;
30892;SDS011;17595;50.884;4.346;2022-12-05T17:09:19;47.30;;;32.50;;
30892;SDS011;17595;50.884;4.346;2022-12-05T17:11:45;52.70;;;32.45;;
30892;SDS011;17595;50.884;4.346;2022-12-05T17:14:13;47.38;;;30.15;;
30892;SDS011;17595;50.884;4.346;2022-12-05T17:16:40;49.20;;;30.45;;
30892;SDS011;17595;50.884;4.346;2022-12-05T17:19:07;46.25;;;30.13;;
30892;SDS011;17595;50.884;4.346;2022-12-05T17:21:34;45.25;;;29.38;;
30892;SDS011;17595;50.884;4.346;2022-12-05T17:24:00;49.22;;;29.55;;
30892;SDS011;17595;50.884;4.346;2022-12-05T17:26:25;52.22;;;29.42;;
30892;SDS011;17595;50.884;4.346;2022-12-05T17:28:51;44.65;;;26.98;;
30892;SDS011;17595;50.884;4.346;2022-12-05T17:31:18;44.45;;;28.27;;
30892;SDS011;17595;50.884;4.346;2022-12-05T17:33:45;43.60;;;26.93;;
30892;SDS011;17595;50.884;4.346;2022-12-05T17:36:12;42.30;;;26.92;;
30892;SDS011;17595;50.884;4.346;2022-12-05T17:38:39;43.20;;;26.30;;
30892;SDS011;17595;50.884;4.346;2022-12-05T17:41:05;46.97;;;28.45;;
30892;SDS011;17595;50.884;4.346;2022-12-05T17:43:31;40.72;;;26.60;;
30892;SDS011;17595;50.884;4.346;2022-12-05T17:46:00;44.03;;;27.27;;
30892;SDS011;17595;50.884;4.346;2022-12-05T17:48:27;41.55;;;26.58;;
30892;SDS011;17595;50.884;4.346;2022-12-05T17:50:53;40.17;;;26.00;;
30892;SDS011;17595;50.884;4.346;2022-12-05T17:53:21;43.00;;;26.60;;
30892;SDS011;17595;50.884;4.346;2022-12-05T17:55:47;44.95;;;27.95;;